Observation data for Friona on 08/20/2019      Previous  Date  Next       Current Mesonet Observations  Soil Data  Daily Summary Page  Observations in Plain Language
KFAS 200500Z 20005KT 28/10 A3012 RMK A01 T02770099  RH  034%=      5-min Rain = 0
KFAS 200505Z 20005KT 28/10 A3012 RMK A01 T02780098  RH  034%=      5-min Rain = 0
KFAS 200510Z 19006KT 28/10 A3012 RMK A01 T02780100  RH  034%=      5-min Rain = 0
KFAS 200515Z 19005KT 28/10 A3012 RMK A01 T02780099  RH  034%=      5-min Rain = 0
KFAS 200520Z 22005KT 28/10 A3012 RMK A01 T02770102  RH  034%=      5-min Rain = 0
KFAS 200525Z 21007KT 28/10 A3012 RMK A01 T02760100  RH  034%=      5-min Rain = 0
KFAS 200530Z 20007KT 28/10 A3012 RMK A01 T02780099  RH  034%=      5-min Rain = 0
KFAS 200535Z 20007KT 28/10 A3012 RMK A01 T02770100  RH  034%=      5-min Rain = 0
KFAS 200540Z 19008KT 28/10 A3012 RMK A01 T02780098  RH  034%=      5-min Rain = 0
KFAS 200545Z 18009KT 28/09 A3012 RMK A01 T02840093  RH  031%=      5-min Rain = 0
KFAS 200550Z 17010KT 29/09 A3012 RMK A01 T02870094  RH  031%=      5-min Rain = 0
KFAS 200555Z 17010KT 29/09 A3012 RMK A01 T02910093  RH  030%=      5-min Rain = 0
KFAS 200600Z 17010KT 29/09 A3012 RMK A01 T02890092  RH  030%=      5-min Rain = 0
KFAS 200605Z 17010KT 29/10 A3012 RMK A01 T02880097  RH  031%=      5-min Rain = 0
KFAS 200610Z 15010KT 28/11 A3012 RMK A01 T02840106  RH  034%=      5-min Rain = 0
KFAS 200615Z 15009KT 28/11 A3012 RMK A01 T02780107  RH  036%=      5-min Rain = 0
KFAS 200620Z 15010KT 28/11 A3012 RMK A01 T02760108  RH  036%=      5-min Rain = 0
KFAS 200625Z 14009KT 27/11 A3012 RMK A01 T02730111  RH  038%=      5-min Rain = 0
KFAS 200630Z 15009KT 27/11 A3012 RMK A01 T02710112  RH  038%=      5-min Rain = 0
KFAS 200635Z 15008KT 27/11 A3012 RMK A01 T02710112  RH  038%=      5-min Rain = 0
KFAS 200640Z 15008KT 27/12 A3013 RMK A01 T02690115  RH  040%=      5-min Rain = 0
KFAS 200645Z 15007KT 27/12 A3013 RMK A01 T02650116  RH  041%=      5-min Rain = 0
KFAS 200650Z 15008KT 26/12 A3012 RMK A01 T02630119  RH  042%=      5-min Rain = 0
KFAS 200655Z 15008KT 26/12 A3012 RMK A01 T02620120  RH  043%=      5-min Rain = 0
KFAS 200700Z 15009KT 26/12 A3012 RMK A01 T02620121  RH  043%=      5-min Rain = 0
KFAS 200705Z 15009KT 26/12 A3012 RMK A01 T02640124  RH  043%=      5-min Rain = 0
KFAS 200710Z 15009KT 26/13 A3012 RMK A01 T02640126  RH  044%=      5-min Rain = 0
KFAS 200715Z 16010KT 27/13 A3012 RMK A01 T02650127  RH  044%=      5-min Rain = 0
KFAS 200720Z 17011KT 27/13 A3012 RMK A01 T02670128  RH  044%=      5-min Rain = 0
KFAS 200725Z 17011KT 27/13 A3012 RMK A01 T02670129  RH  044%=      5-min Rain = 0
KFAS 200730Z 16011KT 27/13 A3012 RMK A01 T02660130  RH  045%=      5-min Rain = 0
KFAS 200735Z 16010KT 27/13 A3013 RMK A01 T02660130  RH  045%=      5-min Rain = 0
KFAS 200740Z 17009KT 27/13 A3013 RMK A01 T02650131  RH  045%=      5-min Rain = 0
KFAS 200745Z 16010KT 26/13 A3013 RMK A01 T02640132  RH  046%=      5-min Rain = 0
KFAS 200750Z 17010KT 26/13 A3013 RMK A01 T02630133  RH  046%=      5-min Rain = 0
KFAS 200755Z 17009KT 26/13 A3013 RMK A01 T02620133  RH  047%=      5-min Rain = 0
KFAS 200800Z 17009KT 26/13 A3013 RMK A01 T02600134  RH  048%=      5-min Rain = 0
KFAS 200805Z 17009KT 26/14 A3013 RMK A01 T02600135  RH  048%=      5-min Rain = 0
KFAS 200810Z 17009KT 26/14 A3013 RMK A01 T02610136  RH  048%=      5-min Rain = 0
KFAS 200815Z 18009KT 26/14 A3013 RMK A01 T02620136  RH  048%=      5-min Rain = 0
KFAS 200820Z 17010KT 26/14 A3013 RMK A01 T02630136  RH  047%=      5-min Rain = 0
KFAS 200825Z 17009KT 26/14 A3013 RMK A01 T02630137  RH  048%=      5-min Rain = 0
KFAS 200830Z 17009KT 26/14 A3013 RMK A01 T02610138  RH  048%=      5-min Rain = 0
KFAS 200835Z 17010KT 26/14 A3013 RMK A01 T02620138  RH  048%=      5-min Rain = 0
KFAS 200840Z 16010KT 26/14 A3013 RMK A01 T02620139  RH  049%=      5-min Rain = 0
KFAS 200845Z 16009KT 26/14 A3013 RMK A01 T02600140  RH  049%=      5-min Rain = 0
KFAS 200850Z 16008KT 26/14 A3013 RMK A01 T02590140  RH  050%=      5-min Rain = 0
KFAS 200855Z 16011KT 26/14 A3013 RMK A01 T02590140  RH  050%=      5-min Rain = 0
KFAS 200900Z 15010KT 26/14 A3013 RMK A01 T02590141  RH  050%=      5-min Rain = 0
KFAS 200905Z 15009KT 26/14 A3013 RMK A01 T02570142  RH  051%=      5-min Rain = 0
KFAS 200910Z 16009KT 26/14 A3013 RMK A01 T02550143  RH  052%=      5-min Rain = 0
KFAS 200915Z 17010KT 26/14 A3013 RMK A01 T02560142  RH  051%=      5-min Rain = 0
KFAS 200920Z 17011KT 26/14 A3013 RMK A01 T02580142  RH  051%=      5-min Rain = 0
KFAS 200925Z 18010KT 26/14 A3013 RMK A01 T02570143  RH  051%=      5-min Rain = 0
KFAS 200930Z 19009KT 26/14 A3013 RMK A01 T02570143  RH  052%=      5-min Rain = 0
KFAS 200935Z 19009KT 26/14 A3013 RMK A01 T02570143  RH  052%=      5-min Rain = 0
KFAS 200940Z 18009KT 26/14 A3013 RMK A01 T02570143  RH  051%=      5-min Rain = 0
KFAS 200945Z 18008KT 26/14 A3013 RMK A01 T02570142  RH  051%=      5-min Rain = 0
KFAS 200950Z 18012KT 26/14 A3013 RMK A01 T02590140  RH  050%=      5-min Rain = 0
KFAS 200955Z 18013KT 26/14 A3013 RMK A01 T02610139  RH  049%=      5-min Rain = 0
KFAS 201000Z 20012KT 26/14 A3013 RMK A01 T02620138  RH  048%=      5-min Rain = 0
KFAS 201005Z 20010KT 26/14 A3013 RMK A01 T02610139  RH  049%=      5-min Rain = 0
KFAS 201010Z 20007KT 26/14 A3013 RMK A01 T02590139  RH  050%=      5-min Rain = 0
KFAS 201015Z 18007KT 26/14 A3013 RMK A01 T02580139  RH  050%=      5-min Rain = 0
KFAS 201020Z 17006KT 26/14 A3014 RMK A01 T02560140  RH  051%=      5-min Rain = 0
KFAS 201025Z 17006KT 25/14 A3014 RMK A01 T02530139  RH  051%=      5-min Rain = 0
KFAS 201030Z 16007KT 25/14 A3014 RMK A01 T02530137  RH  051%=      5-min Rain = 0
KFAS 201035Z 16005KT 26/14 A3014 RMK A01 T02550137  RH  050%=      5-min Rain = 0
KFAS 201040Z 16005KT 25/14 A3014 RMK A01 T02530137  RH  050%=      5-min Rain = 0
KFAS 201045Z 16006KT 25/14 A3014 RMK A01 T02530135  RH  050%=      5-min Rain = 0
KFAS 201050Z 17007KT 25/13 A3014 RMK A01 T02530134  RH  050%=      5-min Rain = 0
KFAS 201055Z 18008KT 26/13 A3014 RMK A01 T02550132  RH  049%=      5-min Rain = 0
KFAS 201100Z 19009KT 26/13 A3014 RMK A01 T02570131  RH  047%=      5-min Rain = 0
KFAS 201105Z 19012G17KT 26/13 A3014 RMK A01 T02580129  RH  046%=      5-min Rain = 0
KFAS 201110Z 20014KT 26/13 A3013 RMK A01 T02600128  RH  046%=      5-min Rain = 0
KFAS 201115Z 20015KT 26/13 A3014 RMK A01 T02600128  RH  046%=      5-min Rain = 0
KFAS 201120Z 20013KT 26/13 A3014 RMK A01 T02580129  RH  047%=      5-min Rain = 0
KFAS 201125Z 20011KT 26/13 A3014 RMK A01 T02570130  RH  047%=      5-min Rain = 0
KFAS 201130Z 20011KT 25/13 A3014 RMK A01 T02540130  RH  048%=      5-min Rain = 0
KFAS 201135Z 20010KT 25/13 A3014 RMK A01 T02530130  RH  048%=      5-min Rain = 0
KFAS 201140Z 20009KT 25/13 A3014 RMK A01 T02520131  RH  049%=      5-min Rain = 0
KFAS 201145Z 20009KT 25/13 A3015 RMK A01 T02500131  RH  050%=      5-min Rain = 0
KFAS 201150Z 20007KT 25/13 A3015 RMK A01 T02480132  RH  050%=      5-min Rain = 0
KFAS 201155Z 21007KT 25/13 A3015 RMK A01 T02460132  RH  051%=      5-min Rain = 0
KFAS 201200Z 22007KT 25/13 A3015 RMK A01 T02460132  RH  051%=      5-min Rain = 0
KFAS 201205Z 21006KT 25/13 A3015 RMK A01 T02460133  RH  051%=      5-min Rain = 0
KFAS 201210Z 21007KT 25/13 A3015 RMK A01 T02460134  RH  052%=      5-min Rain = 0
KFAS 201215Z 18006KT 25/14 A3015 RMK A01 T02450135  RH  052%=      5-min Rain = 0
KFAS 201220Z 20005KT 24/14 A3016 RMK A01 T02440135  RH  053%=      5-min Rain = 0
KFAS 201225Z 20004KT 24/14 A3016 RMK A01 T02410136  RH  054%=      5-min Rain = 0
KFAS 201230Z 20004KT 24/14 A3016 RMK A01 T02380136  RH  055%=      5-min Rain = 0
KFAS 201235Z 20005KT 24/14 A3016 RMK A01 T02390135  RH  054%=      5-min Rain = 0
KFAS 201240Z 19005KT 24/13 A3016 RMK A01 T02410133  RH  053%=      5-min Rain = 0
KFAS 201245Z 22004KT 24/13 A3017 RMK A01 T02430133  RH  052%=      5-min Rain = 0
KFAS 201250Z 22004KT 24/14 A3017 RMK A01 T02420135  RH  053%=      5-min Rain = 0
KFAS 201255Z 21006KT 24/13 A3016 RMK A01 T02430132  RH  052%=      5-min Rain = 0
KFAS 201300Z 22006KT 25/13 A3017 RMK A01 T02480131  RH  050%=      5-min Rain = 0
KFAS 201305Z 23004KT 25/13 A3017 RMK A01 T02500132  RH  050%=      5-min Rain = 0
KFAS 201310Z 27004KT 25/14 A3017 RMK A01 T02490135  RH  051%=      5-min Rain = 0
KFAS 201315Z 27004KT 25/14 A3017 RMK A01 T02480136  RH  052%=      5-min Rain = 0
KFAS 201320Z 33003KT 25/14 A3018 RMK A01 T02460140  RH  054%=      5-min Rain = 0
KFAS 201325Z 35003KT 24/14 A3018 RMK A01 T02430143  RH  056%=      5-min Rain = 0
KFAS 201330Z 33002KT 24/14 A3018 RMK A01 T02430144  RH  056%=      5-min Rain = 0
KFAS 201335Z 29003KT 25/15 A3018 RMK A01 T02450145  RH  056%=      5-min Rain = 0
KFAS 201340Z 27004KT 25/14 A3018 RMK A01 T02510139  RH  052%=      5-min Rain = 0
KFAS 201345Z 26005KT 26/14 A3018 RMK A01 T02560137  RH  050%=      5-min Rain = 0
KFAS 201350Z 25005KT 26/14 A3018 RMK A01 T02580138  RH  049%=      5-min Rain = 0
KFAS 201355Z 24005KT 26/14 A3018 RMK A01 T02600139  RH  049%=      5-min Rain = 0
KFAS 201400Z 24006KT 26/14 A3019 RMK A01 T02610139  RH  049%=      5-min Rain = 0
KFAS 201405Z 24006KT 26/14 A3019 RMK A01 T02620140  RH  049%=      5-min Rain = 0
KFAS 201410Z 24005KT 26/14 A3019 RMK A01 T02630141  RH  049%=      5-min Rain = 0
KFAS 201415Z 24005KT 26/14 A3019 RMK A01 T02640141  RH  049%=      5-min Rain = 0
KFAS 201420Z 23006KT 27/14 A3019 RMK A01 T02650141  RH  049%=      5-min Rain = 0
KFAS 201425Z 23005KT 27/14 A3019 RMK A01 T02670142  RH  048%=      5-min Rain = 0
KFAS 201430Z 22005KT 27/14 A3019 RMK A01 T02690142  RH  048%=      5-min Rain = 0
KFAS 201435Z 23007KT 27/14 A302 RMK A01 T02710144  RH  048%=      5-min Rain = 0
KFAS 201440Z 23011KT 27/15 A302 RMK A01 T02730146  RH  048%=      5-min Rain = 0
KFAS 201445Z 23011KT 27/15 A302 RMK A01 T02720146  RH  048%=      5-min Rain = 0
KFAS 201450Z 23012KT 27/15 A3019 RMK A01 T02710146  RH  048%=      5-min Rain = 0
KFAS 201455Z 23012KT 27/15 A3019 RMK A01 T02710146  RH  048%=      5-min Rain = 0
KFAS 201500Z 22012KT 27/15 A3019 RMK A01 T02700146  RH  049%=      5-min Rain = 0
KFAS 201505Z 22009G14KT 27/15 A3019 RMK A01 T02720147  RH  049%=      5-min Rain = 0
KFAS 201510Z 22011KT 27/15 A3019 RMK A01 T02720147  RH  048%=      5-min Rain = 0
KFAS 201515Z 22011KT 27/15 A3019 RMK A01 T02720147  RH  049%=      5-min Rain = 0
KFAS 201520Z 22013KT 27/15 A3019 RMK A01 T02710147  RH  049%=      5-min Rain = 0
KFAS 201525Z 23012KT 27/15 A302 RMK A01 T02710147  RH  049%=      5-min Rain = 0
KFAS 201530Z 23011KT 27/15 A302 RMK A01 T02720148  RH  049%=      5-min Rain = 0
KFAS 201535Z 23012KT 27/15 A302 RMK A01 T02710147  RH  049%=      5-min Rain = 0
KFAS 201540Z 22012KT 27/15 A302 RMK A01 T02700147  RH  049%=      5-min Rain = 0
KFAS 201545Z 22010KT 27/15 A302 RMK A01 T02700148  RH  049%=      5-min Rain = 0
KFAS 201550Z 22011KT 27/15 A302 RMK A01 T02700148  RH  049%=      5-min Rain = 0
KFAS 201555Z 20010KT 27/15 A302 RMK A01 T02700149  RH  050%=      5-min Rain = 0
KFAS 201600Z 21008KT 27/15 A3021 RMK A01 T02720150  RH  049%=      5-min Rain = 0
KFAS 201605Z 20008KT 27/15 A3021 RMK A01 T02720150  RH  049%=      5-min Rain = 0
KFAS 201610Z 21009KT 27/15 A3021 RMK A01 T02720150  RH  049%=      5-min Rain = 0
KFAS 201615Z 20009KT 27/15 A302 RMK A01 T02730150  RH  049%=      5-min Rain = 0
KFAS 201620Z 21008KT 27/15 A302 RMK A01 T02720150  RH  049%=      5-min Rain = 0
KFAS 201625Z 21008KT 27/15 A302 RMK A01 T02730150  RH  049%=      5-min Rain = 0
KFAS 201630Z 21008KT 27/15 A302 RMK A01 T02730150  RH  049%=      5-min Rain = 0
KFAS 201635Z 22007KT 28/15 A302 RMK A01 T02750151  RH  049%=      5-min Rain = 0
KFAS 201640Z 22008KT 28/15 A302 RMK A01 T02750150  RH  048%=      5-min Rain = 0
KFAS 201645Z 22009KT 27/15 A302 RMK A01 T02730150  RH  049%=      5-min Rain = 0
KFAS 201650Z 21010KT 27/15 A302 RMK A01 T02730150  RH  049%=      5-min Rain = 0
KFAS 201655Z 21008KT 27/15 A302 RMK A01 T02730151  RH  049%=      5-min Rain = 0
KFAS 201700Z 21007KT 27/15 A302 RMK A01 T02730151  RH  049%=      5-min Rain = 0
KFAS 201705Z 21006KT 27/15 A302 RMK A01 T02740152  RH  049%=      5-min Rain = 0
KFAS 201710Z 21006KT 28/15 A302 RMK A01 T02760152  RH  049%=      5-min Rain = 0
KFAS 201715Z 21006KT 28/15 A302 RMK A01 T02770153  RH  049%=      5-min Rain = 0
KFAS 201720Z 20008KT 28/15 A302 RMK A01 T02800153  RH  048%=      5-min Rain = 0
KFAS 201725Z 19008KT 28/15 A302 RMK A01 T02820153  RH  047%=      5-min Rain = 0
KFAS 201730Z 19009KT 28/15 A302 RMK A01 T02830153  RH  047%=      5-min Rain = 0
KFAS 201735Z 20008KT 28/15 A302 RMK A01 T02840152  RH  047%=      5-min Rain = 0
KFAS 201740Z 20008KT 29/15 A302 RMK A01 T02870153  RH  046%=      5-min Rain = 0
KFAS 201745Z 20007KT 29/16 A302 RMK A01 T02900155  RH  046%=      5-min Rain = 0
KFAS 201750Z 20006KT 29/15 A302 RMK A01 T02930153  RH  044%=      5-min Rain = 0
KFAS 201755Z 20006KT 29/15 A302 RMK A01 T02930152  RH  044%=      5-min Rain = 0
KFAS 201800Z 20008KT 30/15 A302 RMK A01 T02950147  RH  042%=      5-min Rain = 0
KFAS 201805Z 21008KT 29/15 A302 RMK A01 T02930146  RH  042%=      5-min Rain = 0
KFAS 201810Z 20007KT 29/14 A302 RMK A01 T02930142  RH  041%=      5-min Rain = 0
KFAS 201815Z 21009KT 29/14 A302 RMK A01 T02920140  RH  041%=      5-min Rain = 0
KFAS 201820Z 19008KT 29/14 A302 RMK A01 T02910140  RH  041%=      5-min Rain = 0
KFAS 201825Z 20013G28KT 29/10 A3019 RMK A01 T02930097  RH  031%=      5-min Rain = 0
KFAS 201830Z 16011KT 29/15 A3018 RMK A01 T02910147  RH  043%=      5-min Rain = 0
KFAS 201835Z 15008KT 28/16 A3018 RMK A01 T02820157  RH  049%=      5-min Rain = 0
KFAS 201840Z 20009G14KT 28/15 A3018 RMK A01 T02840151  RH  047%=      5-min Rain = 0
KFAS 201845Z 20010G15KT 29/15 A3018 RMK A01 T02890150  RH  045%=      5-min Rain = 0
KFAS 201850Z 19010KT 29/15 A3017 RMK A01 T02930153  RH  045%=      5-min Rain = 0
KFAS 201855Z 19008KT 30/15 A3017 RMK A01 T02950154  RH  044%=      5-min Rain = 0
KFAS 201900Z 17009KT 30/16 A3017 RMK A01 T03010157  RH  044%=      5-min Rain = 0
KFAS 201905Z 19011KT 31/15 A3017 RMK A01 T03120151  RH  039%=      5-min Rain = 0
KFAS 201910Z 20012KT 32/15 A3016 RMK A01 T03170145  RH  037%=      5-min Rain = 0
KFAS 201915Z 19013KT 31/14 A3016 RMK A01 T03100142  RH  038%=      5-min Rain = 0
KFAS 201920Z 18013KT 32/14 A3016 RMK A01 T03150139  RH  036%=      5-min Rain = 0
KFAS 201925Z 18014KT 32/13 A3016 RMK A01 T03230131  RH  032%=      5-min Rain = 0
KFAS 201930Z 18014KT 32/13 A3016 RMK A01 T03230127  RH  032%=      5-min Rain = 0
KFAS 201935Z 18015G20KT 32/13 A3016 RMK A01 T03210129  RH  032%=      5-min Rain = 0
KFAS 201940Z 18014KT 32/13 A3016 RMK A01 T03190129  RH  033%=      5-min Rain = 0
KFAS 201945Z 19013KT 32/13 A3015 RMK A01 T03230127  RH  032%=      5-min Rain = 0
KFAS 201950Z 19014KT 33/13 A3015 RMK A01 T03290125  RH  030%=      5-min Rain = 0
KFAS 201955Z 18014KT 33/13 A3015 RMK A01 T03330129  RH  030%=      5-min Rain = 0
KFAS 202000Z 18014KT 33/13 A3015 RMK A01 T03330131  RH  031%=      5-min Rain = 0
KFAS 202005Z 18012KT 33/13 A3014 RMK A01 T03330125  RH  029%=      5-min Rain = 0
KFAS 202010Z 19013KT 34/12 A3014 RMK A01 T03380124  RH  028%=      5-min Rain = 0
KFAS 202015Z 19012KT 34/12 A3014 RMK A01 T03380119  RH  027%=      5-min Rain = 0
KFAS 202020Z 18012KT 33/11 A3014 RMK A01 T03340114  RH  027%=      5-min Rain = 0
KFAS 202025Z 18013G18KT 34/10 A3013 RMK A01 T03360100  RH  025%=      5-min Rain = 0
KFAS 202030Z 18013KT 34/10 A3013 RMK A01 T03430096  RH  023%=      5-min Rain = 0
KFAS 202035Z 18013KT 35/09 A3013 RMK A01 T03480092  RH  022%=      5-min Rain = 0
KFAS 202040Z 17014G21KT 35/11 A3013 RMK A01 T03490108  RH  024%=      5-min Rain = 0
KFAS 202045Z 17014KT 35/11 A3013 RMK A01 T03460108  RH  024%=      5-min Rain = 0
KFAS 202050Z 17014G19KT 35/10 A3012 RMK A01 T03490104  RH  023%=      5-min Rain = 0
KFAS 202055Z 17017G22KT 35/10 A3012 RMK A01 T03470099  RH  023%=      5-min Rain = 0
KFAS 202100Z 17016G22KT 35/10 A3012 RMK A01 T03500096  RH  022%=      5-min Rain = 0
KFAS 202105Z 17015G21KT 35/09 A3012 RMK A01 T03480087  RH  021%=      5-min Rain = 0
KFAS 202110Z 17013KT 35/09 A3011 RMK A01 T03480091  RH  021%=      5-min Rain = 0
KFAS 202115Z 17014G22KT 35/10 A3011 RMK A01 T03500103  RH  023%=      5-min Rain = 0
KFAS 202120Z 17014G22KT 35/10 A3011 RMK A01 T03500102  RH  023%=      5-min Rain = 0
KFAS 202125Z 17014G21KT 35/10 A3011 RMK A01 T03510095  RH  022%=      5-min Rain = 0
KFAS 202130Z 16014G19KT 35/11 A301 RMK A01 T03490109  RH  024%=      5-min Rain = 0
KFAS 202135Z 16013G19KT 35/11 A301 RMK A01 T03480114  RH  025%=      5-min Rain = 0
KFAS 202140Z 17013G20KT 35/11 A301 RMK A01 T03500107  RH  024%=      5-min Rain = 0
KFAS 202145Z 17014G22KT 35/11 A301 RMK A01 T03470105  RH  024%=      5-min Rain = 0
KFAS 202150Z 16016G21KT 34/10 A301 RMK A01 T03430101  RH  023%=      5-min Rain = 0
KFAS 202155Z 16016G21KT 35/10 A301 RMK A01 T03480099  RH  023%=      5-min Rain = 0
KFAS 202200Z 18014G19KT 35/10 A3009 RMK A01 T03510096  RH  022%=      5-min Rain = 0
KFAS 202205Z 16015G21KT 35/10 A3009 RMK A01 T03540101  RH  022%=      5-min Rain = 0
KFAS 202210Z 16015G21KT 36/10 A3009 RMK A01 T03550101  RH  022%=      5-min Rain = 0
KFAS 202215Z 16014G21KT 35/10 A3009 RMK A01 T03530098  RH  022%=      5-min Rain = 0
KFAS 202220Z 15016G22KT 35/10 A3009 RMK A01 T03510100  RH  022%=      5-min Rain = 0
KFAS 202225Z 16016KT 35/10 A3009 RMK A01 T03510097  RH  022%=      5-min Rain = 0
KFAS 202230Z 15015G22KT 34/10 A3009 RMK A01 T03420097  RH  023%=      5-min Rain = 0
KFAS 202235Z 15016G23KT 34/09 A3009 RMK A01 T03410089  RH  022%=      5-min Rain = 0
KFAS 202240Z 16016G22KT 35/08 A3009 RMK A01 T03480076  RH  019%=      5-min Rain = 0
KFAS 202245Z 17014G20KT 35/08 A3009 RMK A01 T03510077  RH  019%=      5-min Rain = 0
KFAS 202250Z 16016KT 35/08 A3009 RMK A01 T03530076  RH  019%=      5-min Rain = 0
KFAS 202255Z 17016G21KT 35/08 A3009 RMK A01 T03520083  RH  020%=      5-min Rain = 0
KFAS 202300Z 17016G21KT 35/08 A3009 RMK A01 T03500079  RH  019%=      5-min Rain = 0
KFAS 202305Z 16015KT 35/08 A3009 RMK A01 T03480084  RH  020%=      5-min Rain = 0
KFAS 202310Z 17017G22KT 35/09 A3009 RMK A01 T03510086  RH  020%=      5-min Rain = 0
KFAS 202315Z 16015G20KT 35/08 A3009 RMK A01 T03500079  RH  019%=      5-min Rain = 0
KFAS 202320Z 16016G21KT 35/08 A3009 RMK A01 T03500078  RH  019%=      5-min Rain = 0
KFAS 202325Z 15017G23KT 35/08 A3009 RMK A01 T03490076  RH  019%=      5-min Rain = 0
KFAS 202330Z 15018KT 35/08 A3009 RMK A01 T03460080  RH  020%=      5-min Rain = 0
KFAS 202335Z 16015KT 35/08 A3009 RMK A01 T03470079  RH  020%=      5-min Rain = 0
KFAS 202340Z 17015KT 35/08 A3009 RMK A01 T03480076  RH  019%=      5-min Rain = 0
KFAS 202345Z 15015G20KT 35/08 A3009 RMK A01 T03460079  RH  020%=      5-min Rain = 0
KFAS 202350Z 15014G20KT 34/07 A3009 RMK A01 T03410071  RH  019%=      5-min Rain = 0
KFAS 202355Z 16016G22KT 34/07 A3009 RMK A01 T03410072  RH  019%=      5-min Rain = 0
KFAS 210000Z 15015KT 34/08 A3009 RMK A01 T03400077  RH  020%=      5-min Rain = 0
KFAS 210005Z 15016KT 34/08 A3009 RMK A01 T03370079  RH  021%=      5-min Rain = 0
KFAS 210010Z 15016KT 34/08 A3009 RMK A01 T03370077  RH  021%=      5-min Rain = 0
KFAS 210015Z 15014KT 34/08 A3009 RMK A01 T03370075  RH  020%=      5-min Rain = 0
KFAS 210020Z 16015KT 33/08 A301 RMK A01 T03320076  RH  021%=      5-min Rain = 0
KFAS 210025Z 15015KT 33/08 A301 RMK A01 T03280080  RH  022%=      5-min Rain = 0
KFAS 210030Z 15012KT 33/08 A301 RMK A01 T03260080  RH  023%=      5-min Rain = 0
KFAS 210035Z 15013KT 32/08 A301 RMK A01 T03230084  RH  023%=      5-min Rain = 0
KFAS 210040Z 16012KT 32/09 A301 RMK A01 T03210086  RH  024%=      5-min Rain = 0
KFAS 210045Z 16012KT 32/09 A301 RMK A01 T03190087  RH  024%=      5-min Rain = 0
KFAS 210050Z 15011KT 32/09 A301 RMK A01 T03180088  RH  025%=      5-min Rain = 0
KFAS 210055Z 15011KT 32/09 A301 RMK A01 T03150089  RH  025%=      5-min Rain = 0
KFAS 210100Z 16011KT 31/09 A301 RMK A01 T03130091  RH  026%=      5-min Rain = 0
KFAS 210105Z 15009KT 31/10 A301 RMK A01 T03110095  RH  027%=      5-min Rain = 0
KFAS 210110Z 16008KT 31/10 A301 RMK A01 T03070097  RH  028%=      5-min Rain = 0
KFAS 210115Z 16009KT 30/10 A301 RMK A01 T03040100  RH  029%=      5-min Rain = 0
KFAS 210120Z 16009KT 30/10 A301 RMK A01 T03020103  RH  030%=      5-min Rain = 0
KFAS 210125Z 16009KT 30/11 A301 RMK A01 T03000105  RH  031%=      5-min Rain = 0
KFAS 210130Z 16009KT 30/11 A301 RMK A01 T02970105  RH  032%=      5-min Rain = 0
KFAS 210135Z 16010KT 30/11 A301 RMK A01 T02950107  RH  032%=      5-min Rain = 0
KFAS 210140Z 16010KT 30/11 A3011 RMK A01 T02950108  RH  033%=      5-min Rain = 0
KFAS 210145Z 16009KT 29/11 A301 RMK A01 T02930109  RH  033%=      5-min Rain = 0
KFAS 210150Z 15009KT 29/11 A301 RMK A01 T02900113  RH  035%=      5-min Rain = 0
KFAS 210155Z 16009KT 29/12 A3011 RMK A01 T02870115  RH  036%=      5-min Rain = 0
KFAS 210200Z 16008KT 28/12 A3011 RMK A01 T02830117  RH  037%=      5-min Rain = 0
KFAS 210205Z 16007KT 28/12 A3011 RMK A01 T02800119  RH  038%=      5-min Rain = 0
KFAS 210210Z 16006KT 28/12 A3011 RMK A01 T02750120  RH  040%=      5-min Rain = 0
KFAS 210215Z 15006KT 27/12 A3011 RMK A01 T02700123  RH  042%=      5-min Rain = 0
KFAS 210220Z 15007KT 27/12 A3012 RMK A01 T02660124  RH  043%=      5-min Rain = 0
KFAS 210225Z 16006KT 26/12 A3012 RMK A01 T02640122  RH  043%=      5-min Rain = 0
KFAS 210230Z 16007KT 27/12 A3012 RMK A01 T02650122  RH  043%=      5-min Rain = 0
KFAS 210235Z 16006KT 27/12 A3012 RMK A01 T02700122  RH  041%=      5-min Rain = 0
KFAS 210240Z 16007KT 27/12 A3012 RMK A01 T02710122  RH  041%=      5-min Rain = 0
KFAS 210245Z 16008KT 27/12 A3012 RMK A01 T02720120  RH  040%=      5-min Rain = 0
KFAS 210250Z 16008KT 27/12 A3012 RMK A01 T02740119  RH  040%=      5-min Rain = 0
KFAS 210255Z 15008KT 28/12 A3013 RMK A01 T02750119  RH  039%=      5-min Rain = 0
KFAS 210300Z 16008KT 28/12 A3013 RMK A01 T02750118  RH  039%=      5-min Rain = 0
KFAS 210305Z 16008KT 28/12 A3013 RMK A01 T02760118  RH  039%=      5-min Rain = 0
KFAS 210310Z 16009KT 28/12 A3013 RMK A01 T02750118  RH  039%=      5-min Rain = 0
KFAS 210315Z 16009KT 27/12 A3013 RMK A01 T02740118  RH  039%=      5-min Rain = 0
KFAS 210320Z 16009KT 27/12 A3013 RMK A01 T02740118  RH  039%=      5-min Rain = 0
KFAS 210325Z 16008KT 27/12 A3013 RMK A01 T02700119  RH  040%=      5-min Rain = 0
KFAS 210330Z 17007KT 27/12 A3013 RMK A01 T02670119  RH  041%=      5-min Rain = 0
KFAS 210335Z 16006KT 26/12 A3013 RMK A01 T02630120  RH  043%=      5-min Rain = 0
KFAS 210340Z 17006KT 26/12 A3013 RMK A01 T02600121  RH  044%=      5-min Rain = 0
KFAS 210345Z 17006KT 26/12 A3013 RMK A01 T02590121  RH  044%=      5-min Rain = 0
KFAS 210350Z 17006KT 26/12 A3013 RMK A01 T02600122  RH  044%=      5-min Rain = 0
KFAS 210355Z 18006KT 26/12 A3013 RMK A01 T02600122  RH  044%=      5-min Rain = 0
KFAS 210400Z 19004KT 26/12 A3014 RMK A01 T02620123  RH  043%=      5-min Rain = 0
KFAS 210405Z 27003KT 26/13 A3014 RMK A01 T02600127  RH  045%=      5-min Rain = 0
KFAS 210410Z 30004KT 25/13 A3014 RMK A01 T02490130  RH  050%=      5-min Rain = 0
KFAS 210415Z 30005KT 25/13 A3014 RMK A01 T02450128  RH  050%=      5-min Rain = 0
KFAS 210420Z 32005KT 26/12 A3014 RMK A01 T02570122  RH  044%=      5-min Rain = 0
KFAS 210425Z 32005KT 26/12 A3014 RMK A01 T02570123  RH  045%=      5-min Rain = 0
KFAS 210430Z 32005KT 26/12 A3015 RMK A01 T02560123  RH  045%=      5-min Rain = 0
KFAS 210435Z 28004KT 25/12 A3015 RMK A01 T02530122  RH  046%=      5-min Rain = 0
KFAS 210440Z 26005KT 26/12 A3014 RMK A01 T02580121  RH  044%=      5-min Rain = 0
KFAS 210445Z 24005KT 26/13 A3014 RMK A01 T02570125  RH  046%=      5-min Rain = 0
KFAS 210450Z 22004KT 25/12 A3014 RMK A01 T02520124  RH  046%=      5-min Rain = 0
KFAS 210455Z 20003KT 26/12 A3014 RMK A01 T02560121  RH  045%=      5-min Rain = 0

Page generated in 0.0089 seconds.